Time;durP1;ratioP1;P1;durP2;ratioP2;P2;SDS_P1;SDS_P2;PMS_P1;PMS_P2;Temp;Humidity;BMP_temperature;BMP_pressure;BME280_temperature;BME280_humidity;BME280_pressure;Samples;Min_cycle;Max_cycle;Signal;HPM_P1;HPM_P2
2023/09/06 00:00:30;;;;;;;14.57;5.53;;;;;;;-145.18;100.00;46662.34;5030922;28;20044;-60
2023/09/06 00:02:56;;;;;;;;;;;;;;;-145.18;100.00;46679.94;5030603;28;20032;-60
2023/09/06 00:05:21;;;;;;;17.75;5.63;;;;;;;-145.18;100.00;46677.97;5026568;28;19921;-60
2023/09/06 00:07:47;;;;;;;13.43;4.97;;;;;;;-145.18;100.00;46681.88;5021078;28;20046;-60
2023/09/06 00:10:15;;;;;;;10.13;4.40;;;;;;;-145.18;100.00;46672.13;5028626;28;20047;-62
2023/09/06 00:12:42;;;;;;;12.63;5.47;;;;;;;-145.18;100.00;46676.03;5024679;28;20026;-60
2023/09/06 00:15:08;;;;;;;9.23;4.70;;;;;;;-145.18;100.00;46677.97;5030466;28;20056;-60
2023/09/06 00:17:37;;;;;;;11.80;4.83;;;;;;;-145.18;100.00;46679.94;5026935;28;20052;-60
2023/09/06 00:20:16;;;;;;;10.17;4.23;;;;;;;-145.18;100.00;46672.13;5028883;28;20094;-60
2023/09/06 00:22:41;;;;;;;7.40;4.13;;;;;;;-145.18;100.00;46670.16;5028064;28;20513;-60
2023/09/06 00:25:08;;;;;;;6.47;3.60;;;;;;;-145.18;100.00;46679.94;5034185;28;20029;-61
2023/09/06 00:27:33;;;;;;;8.07;3.80;;;;;;;-145.18;100.00;46674.06;5020690;28;20030;-60
2023/09/06 00:29:58;;;;;;;6.07;3.47;;;;;;;-145.18;100.00;46679.94;5026738;28;20029;-61
2023/09/06 00:32:24;;;;;;;4.30;3.50;;;;;;;-145.18;100.00;46681.88;5038838;28;20443;-60
2023/09/06 00:34:49;;;;;;;5.00;3.87;;;;;;;-145.18;100.00;46672.13;5029010;28;20026;-60
2023/09/06 00:37:14;;;;;;;6.20;4.03;;;;;;;-145.18;100.00;46672.13;5028559;28;20050;-60
2023/09/06 00:39:40;;;;;;;5.00;3.67;;;;;;;-145.18;100.00;46676.03;5029848;28;20033;-60
2023/09/06 00:42:05;;;;;;;10.20;4.13;;;;;;;-145.18;100.00;46674.06;5031049;28;20112;-60
2023/09/06 00:44:31;;;;;;;5.10;3.73;;;;;;;-145.18;100.00;46672.13;5030362;28;20505;-60
2023/09/06 00:46:56;;;;;;;6.47;3.37;;;;;;;-145.18;100.00;46668.22;5031336;28;20040;-60
2023/09/06 00:49:22;;;;;;;7.83;4.00;;;;;;;-145.18;100.00;46664.31;5030082;28;20084;-60
2023/09/06 00:51:47;;;;;;;5.73;3.63;;;;;;;-145.18;100.00;46664.31;5031433;28;20022;-60
2023/09/06 00:54:14;;;;;;;9.07;4.07;;;;;;;-145.18;100.00;46660.41;5028229;28;20045;-60
2023/09/06 00:56:40;;;;;;;4.80;3.53;;;;;;;-145.18;100.00;46650.63;5011778;28;20095;-60
2023/09/06 00:59:05;;;;;;;6.90;3.90;;;;;;;-145.18;100.00;46652.59;5023236;28;20481;-60
2023/09/06 01:01:33;;;;;;;5.40;3.83;;;;;;;-145.18;100.00;46648.69;5025490;28;20091;-60
2023/09/06 01:03:59;;;;;;;5.13;3.73;;;;;;;-145.18;100.00;46654.53;5026233;28;20032;-60
2023/09/06 01:06:27;;;;;;;5.80;3.73;;;;;;;-145.18;100.00;46644.78;5028403;28;20029;-60
2023/09/06 01:08:58;;;;;;;6.27;3.70;;;;;;;-145.18;100.00;46644.78;5027420;28;20095;-60
2023/09/06 01:11:25;;;;;;;7.10;4.03;;;;;;;-145.18;100.00;46660.41;5028884;28;20120;-60
2023/09/06 01:13:56;;;;;;;5.33;3.67;;;;;;;-145.18;100.00;46681.88;5033464;28;20435;-60
2023/09/06 01:16:32;;;;;;;6.37;3.67;;;;;;;-145.18;100.00;46660.41;5028644;28;20029;-60
2023/09/06 01:18:59;;;;;;;4.33;3.50;;;;;;;-145.18;100.00;46681.88;5024449;28;20132;-60
2023/09/06 01:21:27;;;;;;;6.87;3.93;;;;;;;-145.18;100.00;46660.41;5026403;28;20029;-60
2023/09/06 01:23:54;;;;;;;5.27;3.47;;;;;;;-145.18;100.00;46660.41;5024430;28;20033;-60
2023/09/06 01:26:19;;;;;;;7.97;4.00;;;;;;;-145.18;100.00;46660.41;5015815;28;20109;-64
2023/09/06 01:28:45;;;;;;;7.13;3.37;;;;;;;-145.18;100.00;46660.41;5029139;28;20029;-64
2023/09/06 01:31:10;;;;;;;5.57;3.53;;;;;;;-145.18;100.00;46660.41;5032139;28;20410;-64
2023/09/06 01:33:36;;;;;;;6.17;3.77;;;;;;;-145.18;100.00;46660.41;5031800;28;20113;-64
2023/09/06 01:36:01;;;;;;;6.17;4.03;;;;;;;-145.18;100.00;46677.97;5033293;28;20025;-64
2023/09/06 01:38:27;;;;;;;8.80;4.30;;;;;;;-145.18;100.00;46660.41;5029762;28;20030;-64
2023/09/06 01:40:53;;;;;;;5.80;4.17;;;;;;;-145.18;100.00;46660.41;5029168;28;20112;-64
2023/09/06 01:43:18;;;;;;;7.77;3.90;;;;;;;-145.18;100.00;46677.97;5026706;28;20025;-64
2023/09/06 01:45:48;;;;;;;8.17;3.43;;;;;;;-145.18;100.00;46660.41;5031303;28;20033;-64
2023/09/06 01:48:13;;;;;;;5.03;3.23;;;;;;;-145.18;100.00;46660.41;5029442;28;20033;-64
2023/09/06 01:50:39;;;;;;;6.10;3.97;;;;;;;-145.18;100.00;46660.41;5023936;28;20033;-64
2023/09/06 01:53:04;;;;;;;5.57;3.93;;;;;;;-145.18;100.00;46660.41;5025515;28;20061;-64
2023/09/06 01:55:30;;;;;;;5.07;3.30;;;;;;;-145.18;100.00;46660.41;5031253;28;20022;-64
2023/09/06 01:57:55;;;;;;;7.43;4.20;;;;;;;-145.18;100.00;46660.41;5029758;28;20026;-64
2023/09/06 02:00:27;;;;;;;5.67;3.47;;;;;;;-145.18;100.00;46660.41;5030749;28;20033;-65
2023/09/06 02:02:53;;;;;;;8.87;3.70;;;;;;;-145.18;100.00;46660.41;5026674;28;20562;-64
2023/09/06 02:05:19;;;;;;;6.13;3.87;;;;;;;-145.18;100.00;46660.41;5017474;28;20425;-64
2023/09/06 02:07:46;;;;;;;8.00;3.70;;;;;;;-145.18;100.00;46660.41;5022715;28;20076;-64
2023/09/06 02:10:12;;;;;;;6.17;3.73;;;;;;;-145.18;100.00;46660.41;5028512;28;20029;-64
2023/09/06 02:12:38;;;;;;;11.27;3.97;;;;;;;-145.18;100.00;46660.41;5031815;28;20042;-64
2023/09/06 02:15:05;;;;;;;5.20;3.30;;;;;;;-145.18;100.00;46676.03;5044486;28;20027;-64
2023/09/06 02:17:31;;;;;;;3.90;3.37;;;;;;;-145.18;100.00;46660.41;5031591;28;20033;-64
2023/09/06 02:19:57;;;;;;;5.17;3.77;;;;;;;-145.18;100.00;46660.41;5015606;28;20453;-64
2023/09/06 02:22:22;;;;;;;6.60;3.50;;;;;;;-145.18;100.00;46660.41;5016243;28;20056;-64
2023/09/06 02:24:48;;;;;;;5.23;3.50;;;;;;;-145.18;100.00;46660.41;5024405;28;20060;-64
2023/09/06 02:27:13;;;;;;;8.53;4.03;;;;;;;-145.18;100.00;46660.41;5016622;28;20030;-64
2023/09/06 02:29:42;;;;;;;7.83;3.83;;;;;;;-145.18;100.00;46660.41;5018682;28;20498;-64
2023/09/06 02:32:08;;;;;;;5.20;4.00;;;;;;;-145.18;100.00;46660.41;5016183;28;20026;-64
2023/09/06 02:34:34;;;;;;;6.87;3.77;;;;;;;-145.18;100.00;46660.41;5024807;28;20037;-64
2023/09/06 02:36:59;;;;;;;8.23;3.93;;;;;;;-145.18;100.00;46660.41;5020620;28;20385;-60
2023/09/06 02:39:25;;;;;;;5.23;4.13;;;;;;;-145.18;100.00;46660.41;5032353;28;20025;-60
2023/09/06 02:41:51;;;;;;;5.17;3.70;;;;;;;-145.18;100.00;46660.41;5024787;28;20490;-60
2023/09/06 02:44:16;;;;;;;9.53;4.00;;;;;;;-145.18;100.00;46660.41;5018314;28;20033;-60
2023/09/06 02:46:43;;;;;;;9.90;4.00;;;;;;;-145.18;100.00;46660.41;5022507;28;20033;-60
2023/09/06 02:49:12;;;;;;;6.63;4.33;;;;;;;-145.18;100.00;46660.41;5022526;28;20109;-60
2023/09/06 02:51:43;;;;;;;6.07;3.97;;;;;;;-145.18;100.00;46677.97;5018901;28;20033;-60
2023/09/06 02:54:09;;;;;;;5.27;3.73;;;;;;;-145.18;100.00;46660.41;5026005;28;20481;-60
2023/09/06 02:56:37;;;;;;;6.73;4.03;;;;;;;-145.18;100.00;46660.41;5026414;28;20049;-59
2023/09/06 02:59:12;;;;;;;5.90;4.20;;;;;;;-145.18;100.00;46660.41;5020657;28;20031;-60
2023/09/06 03:01:44;;;;;;;6.95;4.65;;;;;;;-145.18;100.00;46660.41;5017105;28;20049;-60
2023/09/06 03:04:13;;;;;;;6.90;4.30;;;;;;;-145.18;100.00;46660.41;5017330;28;20080;-60
2023/09/06 03:06:39;;;;;;;7.37;4.70;;;;;;;-145.18;100.00;46660.41;5021605;28;20559;-60
2023/09/06 03:09:07;;;;;;;6.67;4.63;;;;;;;-145.18;100.00;46660.41;5021246;28;20033;-60
2023/09/06 03:11:33;;;;;;;7.10;4.17;;;;;;;-145.18;100.00;46660.41;5025006;28;20036;-60
2023/09/06 03:13:58;;;;;;;7.57;4.93;;;;;;;-145.18;100.00;46660.41;5025311;28;20100;-60
2023/09/06 03:16:24;;;;;;;9.53;5.57;;;;;;;-145.18;100.00;46660.41;5014311;28;20449;-60
2023/09/06 03:18:51;;;;;;;9.47;5.43;;;;;;;-145.18;100.00;46660.41;5015040;28;20050;-60
2023/09/06 03:21:17;;;;;;;11.20;5.60;;;;;;;-145.18;100.00;46660.41;5024684;28;20022;-60
2023/09/06 03:23:45;;;;;;;13.87;5.83;;;;;;;-145.18;100.00;46660.41;5021270;28;20053;-60
2023/09/06 03:26:12;;;;;;;20.67;6.47;;;;;;;-145.18;100.00;46660.41;5013532;28;20156;-60
2023/09/06 03:28:40;;;;;;;15.40;6.17;;;;;;;-145.18;100.00;46660.41;5026748;28;20394;-60
2023/09/06 03:31:09;;;;;;;16.03;6.97;;;;;;;-145.18;100.00;46660.41;5013561;28;20026;-60
2023/09/06 03:33:35;;;;;;;21.03;7.17;;;;;;;-145.18;100.00;46660.41;5023443;28;20029;-60
2023/09/06 03:36:07;;;;;;;22.40;7.63;;;;;;;-145.18;100.00;46660.41;5023605;28;20227;-60
2023/09/06 03:38:33;;;;;;;14.10;7.00;;;;;;;-145.18;100.00;46660.41;5015449;28;20034;-60
2023/09/06 03:41:02;;;;;;;18.83;7.27;;;;;;;-145.18;100.00;46660.41;5020172;28;20493;-60
2023/09/06 03:43:30;;;;;;;21.17;7.97;;;;;;;-145.18;100.00;46660.41;5023516;28;20030;-60
2023/09/06 03:45:58;;;;;;;20.37;8.37;;;;;;;-145.18;100.00;46660.41;5024859;28;20083;-61
2023/09/06 03:48:25;;;;;;;17.50;7.90;;;;;;;-145.18;100.00;46660.41;5024161;28;20025;-59
2023/09/06 03:50:54;;;;;;;23.03;9.03;;;;;;;-145.18;100.00;46660.41;5027948;28;20053;-60
2023/09/06 03:53:20;;;;;;;21.27;9.07;;;;;;;-145.18;100.00;46658.44;5030271;28;20032;-60
2023/09/06 03:55:46;;;;;;;17.27;7.63;;;;;;;-145.18;100.00;46660.41;5031135;28;20448;-60
2023/09/06 03:58:12;;;;;;;16.30;7.97;;;;;;;-145.18;100.00;46660.41;5028931;28;20030;-60
2023/09/06 04:00:41;;;;;;;20.27;8.40;;;;;;;-145.18;100.00;46660.41;5034784;28;20060;-60
2023/09/06 04:03:10;;;;;;;17.60;7.57;;;;;;;-145.18;100.00;46660.41;5026179;28;20049;-60
2023/09/06 04:05:36;;;;;;;17.27;7.63;;;;;;;-145.18;100.00;46660.41;4991331;28;20107;-60
2023/09/06 04:08:03;;;;;;;18.90;7.37;;;;;;;-145.18;100.00;46660.41;5033435;28;20501;-60
2023/09/06 04:10:40;;;;;;;13.63;7.07;;;;;;;-145.18;100.00;46660.41;5035113;28;20053;-60
2023/09/06 04:13:08;;;;;;;23.47;7.60;;;;;;;-145.18;100.00;46660.41;5034360;28;20041;-60
2023/09/06 04:15:37;;;;;;;15.57;6.87;;;;;;;-145.18;100.00;46660.41;5023539;28;20439;-60
2023/09/06 04:18:04;;;;;;;13.70;6.40;;;;;;;-145.18;100.00;46660.41;5016147;28;20572;-60
2023/09/06 04:20:36;;;;;;;13.93;5.70;;;;;;;-145.18;100.00;46660.41;5023714;28;20026;-60
2023/09/06 04:23:09;;;;;;;12.90;5.93;;;;;;;-145.18;100.00;46660.41;5025545;28;20498;-60
2023/09/06 04:25:41;;;;;;;13.53;5.80;;;;;;;-145.18;100.00;46658.44;5022250;28;20025;-60
2023/09/06 04:28:20;;;;;;;11.30;6.27;;;;;;;-145.18;100.00;46660.41;5017565;28;20104;-60
2023/09/06 04:30:46;;;;;;;10.47;5.23;;;;;;;-145.18;100.00;46660.41;5026893;28;20064;-60
2023/09/06 04:33:14;;;;;;;8.47;5.33;;;;;;;-145.18;100.00;46660.41;5025293;28;20045;-60
2023/09/06 04:35:42;;;;;;;10.43;5.63;;;;;;;-145.18;100.00;46660.41;5029323;28;20046;-60
2023/09/06 04:38:09;;;;;;;8.30;5.00;;;;;;;-145.18;100.00;46660.41;5027936;28;20022;-60
2023/09/06 04:40:35;;;;;;;11.07;4.83;;;;;;;-145.18;100.00;46660.41;5024339;28;20045;-60
2023/09/06 04:43:00;;;;;;;14.47;7.17;;;;;;;-145.18;100.00;46660.41;5027779;28;20029;-60
2023/09/06 04:45:26;;;;;;;12.10;6.07;;;;;;;-145.18;100.00;46660.41;5030175;28;20037;-60
2023/09/06 04:47:51;;;;;;;11.67;5.20;;;;;;;-145.18;100.00;46658.44;5035925;28;20719;-60
2023/09/06 04:50:16;;;;;;;9.13;5.47;;;;;;;-145.18;100.00;46660.41;5024259;28;20040;-60
2023/09/06 04:52:47;;;;;;;7.47;5.23;;;;;;;-145.18;100.00;46660.41;5023661;28;20088;-60
2023/09/06 04:55:14;;;;;;;8.63;5.00;;;;;;;-145.18;100.00;46660.41;5028352;28;20025;-60
2023/09/06 04:57:45;;;;;;;8.57;5.03;;;;;;;-145.18;100.00;46660.41;5025117;28;20065;-64
2023/09/06 05:00:17;;;;;;;8.17;5.07;;;;;;;-145.18;100.00;46660.41;5021851;28;20035;-64
2023/09/06 05:02:46;;;;;;;11.13;5.40;;;;;;;-145.18;100.00;46660.41;5023957;28;20034;-64
2023/09/06 05:05:14;;;;;;;7.47;5.43;;;;;;;-145.18;100.00;46660.41;5029407;28;20029;-64
2023/09/06 05:07:41;;;;;;;9.37;6.20;;;;;;;-145.18;100.00;46660.41;5033629;28;20025;-64
2023/09/06 05:10:10;;;;;;;9.33;5.77;;;;;;;-145.18;100.00;46660.41;5026447;28;20018;-64
2023/09/06 05:12:36;;;;;;;8.23;5.63;;;;;;;-145.18;100.00;46660.41;5027227;28;20034;-64
2023/09/06 05:15:02;;;;;;;8.33;5.80;;;;;;;-145.18;100.00;46660.41;5033122;28;20056;-64
2023/09/06 05:17:28;;;;;;;9.30;6.07;;;;;;;-145.18;100.00;46660.41;5025932;28;20056;-64
2023/09/06 05:19:53;;;;;;;13.13;5.23;;;;;;;-145.18;100.00;46660.41;5027850;28;20064;-64
2023/09/06 05:22:19;;;;;;;8.97;6.40;;;;;;;-145.18;100.00;46660.41;5026326;28;20053;-64
2023/09/06 05:24:46;;;;;;;10.60;5.87;;;;;;;-145.18;100.00;46660.41;5030395;28;20026;-64
2023/09/06 05:27:12;;;;;;;10.87;6.00;;;;;;;-145.18;100.00;46660.41;5029044;28;20053;-64
2023/09/06 05:29:37;;;;;;;8.73;5.67;;;;;;;-145.18;100.00;46660.41;5031753;28;20033;-64
2023/09/06 05:32:03;;;;;;;8.90;6.07;;;;;;;-145.18;100.00;46660.41;5029385;28;20083;-64
2023/09/06 05:34:29;;;;;;;7.00;5.63;;;;;;;-145.18;100.00;46660.41;5021887;28;20429;-64
2023/09/06 05:36:55;;;;;;;11.37;6.40;;;;;;;-145.18;100.00;46660.41;5030647;28;20090;-64
2023/09/06 05:39:20;;;;;;;15.40;6.67;;;;;;;-145.18;100.00;46658.44;5017295;28;20037;-64
2023/09/06 05:41:50;;;;;;;8.60;5.87;;;;;;;-145.18;100.00;46660.41;5030148;28;20026;-64
2023/09/06 05:44:15;;;;;;;8.40;5.93;;;;;;;-145.18;100.00;46654.53;5025552;28;20033;-65
2023/09/06 05:46:41;;;;;;;8.53;5.23;;;;;;;-145.18;100.00;46656.50;5023121;28;20029;-65
2023/09/06 05:49:08;;;;;;;12.73;7.10;;;;;;;-145.18;100.00;46660.41;5016113;28;20477;-64
2023/09/06 05:51:33;;;;;;;6.87;5.13;;;;;;;-145.18;100.00;46658.44;5015342;28;20037;-64
2023/09/06 05:54:00;;;;;;;7.03;5.23;;;;;;;-145.18;100.00;46658.44;5014388;28;20025;-65
2023/09/06 05:56:26;;;;;;;8.87;5.47;;;;;;;-145.18;100.00;46660.41;5013295;28;20394;-64
2023/09/06 05:58:51;;;;;;;7.37;5.00;;;;;;;-145.18;100.00;46660.41;5013570;28;20025;-65
2023/09/06 06:01:18;;;;;;;6.33;5.10;;;;;;;-145.18;100.00;46660.41;5015519;28;20030;-65
2023/09/06 06:03:44;;;;;;;9.20;6.17;;;;;;;-145.18;100.00;46660.41;5032374;28;20112;-65
2023/09/06 06:06:10;;;;;;;7.20;5.77;;;;;;;-145.18;100.00;46660.41;5027475;28;20104;-60
2023/09/06 06:08:37;;;;;;;9.60;6.20;;;;;;;-145.18;100.00;46658.44;5031231;28;20057;-60
2023/09/06 06:11:03;;;;;;;8.90;6.40;;;;;;;-145.18;100.00;46660.41;5026385;28;20022;-60
2023/09/06 06:13:28;;;;;;;12.13;6.50;;;;;;;-145.18;100.00;46656.50;5027556;28;20028;-61
2023/09/06 06:15:54;;;;;;;14.47;7.67;;;;;;;-145.18;100.00;46660.41;5023982;28;20079;-60
2023/09/06 06:18:19;;;;;;;11.13;6.00;;;;;;;-145.18;100.00;46656.50;5025323;28;20045;-60
2023/09/06 06:20:45;;;;;;;14.80;6.63;;;;;;;-145.18;100.00;46656.50;5023262;28;20109;-60
2023/09/06 06:23:10;;;;;;;11.07;6.30;;;;;;;-145.18;100.00;46660.41;5029708;28;20021;-60
2023/09/06 06:25:36;;;;;;;9.43;7.10;;;;;;;-145.18;100.00;46660.41;5023313;28;20041;-60
2023/09/06 06:28:01;;;;;;;10.17;7.70;;;;;;;-145.18;100.00;46660.41;5015870;28;20036;-60
2023/09/06 06:30:26;;;;;;;11.53;6.60;;;;;;;-145.18;100.00;46654.53;5023589;28;20030;-60
2023/09/06 06:32:52;;;;;;;9.90;6.50;;;;;;;-145.18;100.00;46656.50;5021873;28;20033;-60
2023/09/06 06:35:18;;;;;;;9.87;7.17;;;;;;;-145.18;100.00;46656.50;5022074;28;20053;-60
2023/09/06 06:37:49;;;;;;;9.80;7.00;;;;;;;-145.18;100.00;46658.44;5020741;28;20079;-60
2023/09/06 06:40:16;;;;;;;9.27;7.03;;;;;;;-145.18;100.00;46658.44;5031537;28;20087;-60
2023/09/06 06:42:42;;;;;;;13.27;7.13;;;;;;;-145.18;100.00;46656.50;5026017;28;20048;-60
2023/09/06 06:45:09;;;;;;;9.60;6.87;;;;;;;-145.18;100.00;46660.41;5025049;28;20489;-60
2023/09/06 06:47:34;;;;;;;12.60;7.33;;;;;;;-145.18;100.00;46660.41;5024597;28;20025;-60
2023/09/06 06:50:03;;;;;;;8.17;6.43;;;;;;;-145.18;100.00;46656.50;5028020;28;20026;-61
2023/09/06 06:52:30;;;;;;;9.30;7.10;;;;;;;-145.18;100.00;46656.50;5015343;28;20022;-61
2023/09/06 06:54:56;;;;;;;9.33;7.57;;;;;;;-145.18;100.00;46656.50;5027171;28;20418;-61
2023/09/06 06:57:22;;;;;;;9.33;6.50;;;;;;;-145.18;100.00;46656.50;5013624;28;20493;-60
2023/09/06 06:59:47;;;;;;;8.40;6.50;;;;;;;-145.18;100.00;46658.44;5026624;28;20021;-61
2023/09/06 07:02:13;;;;;;;9.93;7.20;;;;;;;-145.18;100.00;46621.31;5024669;28;20099;-60
2023/09/06 07:04:39;;;;;;;8.60;6.90;;;;;;;-145.18;100.00;46619.38;5030157;28;20555;-61
2023/09/06 07:07:05;;;;;;;9.50;7.27;;;;;;;-145.18;100.00;46619.38;5020150;28;20026;-61
2023/09/06 07:09:31;;;;;;;9.77;7.03;;;;;;;-145.18;100.00;46623.28;5015160;28;20398;-61
2023/09/06 07:11:57;;;;;;;9.53;7.10;;;;;;;-145.18;100.00;46623.28;5024609;28;20041;-61
2023/09/06 07:14:22;;;;;;;12.67;6.80;;;;;;;-145.18;100.00;46621.31;5018485;28;20028;-61
2023/09/06 07:16:48;;;;;;;9.87;6.70;;;;;;;-145.18;100.00;46623.28;5014277;28;20030;-61
2023/09/06 07:19:13;;;;;;;8.90;6.80;;;;;;;-145.18;100.00;46621.31;5019208;28;20096;-61
2023/09/06 07:21:40;;;;;;;10.10;7.10;;;;;;;-145.18;100.00;46621.31;5019127;28;20061;-61
2023/09/06 07:24:06;;;;;;;13.97;8.17;;;;;;;-145.18;100.00;46619.38;5023499;28;20021;-61
2023/09/06 07:26:31;;;;;;;9.80;6.93;;;;;;;-145.18;100.00;46619.38;5020786;28;20053;-61
2023/09/06 07:28:57;;;;;;;9.50;6.63;;;;;;;-145.18;100.00;46619.38;5033847;28;20025;-61
2023/09/06 07:31:22;;;;;;;10.47;6.57;;;;;;;-145.18;100.00;46619.38;5029178;28;20112;-61
2023/09/06 07:33:48;;;;;;;7.57;6.40;;;;;;;-145.18;100.00;46623.28;5026597;28;20025;-61
2023/09/06 07:36:14;;;;;;;13.07;6.50;;;;;;;-145.18;100.00;46623.28;5033507;28;20030;-61
2023/09/06 07:38:39;;;;;;;9.57;6.30;;;;;;;-145.18;100.00;46623.28;5025009;28;20036;-61
2023/09/06 07:41:08;;;;;;;8.77;5.93;;;;;;;-145.18;100.00;46629.13;5027415;28;20033;-61
2023/09/06 07:43:36;;;;;;;8.47;5.47;;;;;;;-145.18;100.00;46629.13;5020557;28;20028;-61
2023/09/06 07:46:03;;;;;;;10.93;6.00;;;;;;;-145.18;100.00;46627.19;5020537;28;20517;-61
2023/09/06 07:48:30;;;;;;;10.80;6.20;;;;;;;-145.18;100.00;46629.13;5025014;28;20439;-61
2023/09/06 07:50:59;;;;;;;8.33;6.27;;;;;;;-145.18;100.00;46629.13;5020739;28;20030;-61
2023/09/06 07:53:27;;;;;;;6.47;5.10;;;;;;;-145.18;100.00;46635.00;5019964;28;20032;-61
2023/09/06 07:55:53;;;;;;;8.17;4.70;;;;;;;-145.18;100.00;46636.94;5020408;28;20033;-61
2023/09/06 07:58:19;;;;;;;6.63;4.23;;;;;;;-145.18;100.00;46640.88;5035552;28;20028;-61
2023/09/06 08:00:46;;;;;;;8.30;4.20;;;;;;;-145.18;100.00;46640.88;5026476;28;20092;-61
2023/09/06 08:03:11;;;;;;;9.07;4.00;;;;;;;-145.18;100.00;46648.69;5025425;28;20586;-60
2023/09/06 08:05:37;;;;;;;7.30;4.20;;;;;;;-145.18;100.00;46650.63;5028763;28;20025;-61
2023/09/06 08:08:08;;;;;;;6.57;4.33;;;;;;;-145.18;100.00;46650.63;5024625;28;20021;-61
2023/09/06 08:10:35;;;;;;;7.40;3.87;;;;;;;-145.18;100.00;46654.53;5021038;28;20026;-61
2023/09/06 08:13:00;;;;;;;10.30;4.07;;;;;;;-145.18;100.00;46654.53;5025243;28;20025;-61
2023/09/06 08:15:26;;;;;;;5.07;4.03;;;;;;;-145.18;100.00;46662.34;5020852;28;20105;-61
2023/09/06 08:17:52;;;;;;;6.83;4.83;;;;;;;-145.18;100.00;46662.34;5023260;28;20037;-61
2023/09/06 08:20:18;;;;;;;5.67;4.43;;;;;;;-145.18;100.00;46664.31;5018881;28;20054;-61
2023/09/06 08:22:47;;;;;;;6.43;4.27;;;;;;;-145.18;100.00;46654.53;5023232;28;20540;-61
2023/09/06 08:25:14;;;;;;;9.93;4.40;;;;;;;-145.18;100.00;46664.31;5017189;28;20028;-61
2023/09/06 08:27:39;;;;;;;8.00;4.23;;;;;;;-145.18;100.00;46662.34;5025710;28;20125;-66
2023/09/06 08:30:12;;;;;;;6.07;4.10;;;;;;;-145.18;100.00;46664.31;5023840;28;20109;-66
2023/09/06 08:32:40;;;;;;;8.93;4.23;;;;;;;-145.18;100.00;46662.34;5018549;28;20057;-65
2023/09/06 08:35:09;;;;;;;4.80;3.77;;;;;;;-145.18;100.00;46664.31;5015916;28;20033;-66
2023/09/06 08:37:35;;;;;;;7.20;4.37;;;;;;;-145.18;100.00;46664.31;5020398;28;20041;-66
2023/09/06 08:40:05;;;;;;;6.07;4.40;;;;;;;-145.18;100.00;46660.41;5027199;28;20119;-66
2023/09/06 08:42:33;;;;;;;8.63;4.63;;;;;;;-145.18;100.00;46664.31;5020614;28;20029;-66
2023/09/06 08:45:00;;;;;;;5.57;4.40;;;;;;;-145.18;100.00;46642.81;5029477;28;20036;-65
2023/09/06 08:47:27;;;;;;;5.47;4.03;;;;;;;-145.18;100.00;46592.03;5028932;28;20449;-66
2023/09/06 08:49:53;;;;;;;5.53;4.35;;;;;;;-145.18;100.00;46611.56;5032361;28;20134;-66
2023/09/06 08:52:19;;;;;;;6.23;4.40;;;;;;;-145.18;100.00;46572.50;5030529;28;20099;-66
2023/09/06 08:54:46;;;;;;;6.28;4.00;;;;;;;-145.18;100.00;46582.25;5033367;28;20029;-66
2023/09/06 08:57:13;;;;;;;6.05;4.10;;;;;;;-145.18;100.00;46586.16;5030181;28;20112;-66
2023/09/06 08:59:39;;;;;;;8.50;4.32;;;;;;;-145.18;100.00;46566.63;5030764;28;20025;-66
2023/09/06 09:02:05;;;;;;;8.80;4.90;;;;;;;-145.18;100.00;46592.03;5026090;28;20026;-66
2023/09/06 09:04:31;;;;;;;5.45;3.63;;;;;;;-145.18;100.00;46615.47;5027327;28;20033;-66
2023/09/06 09:06:57;;;;;;;7.10;3.67;;;;;;;-145.18;100.00;46551.00;5023671;28;20026;-66
2023/09/06 09:09:24;;;;;;;5.22;4.07;;;;;;;-145.18;100.00;46556.88;5024697;28;20036;-66
2023/09/06 09:11:51;;;;;;;6.53;3.90;;;;;;;-145.18;100.00;46551.00;5022404;28;20018;-66
2023/09/06 09:14:22;;;;;;;5.45;3.97;;;;;;;-145.18;100.00;46525.63;5022846;28;20512;-66
2023/09/06 09:16:56;;;;;;;5.72;3.53;;;;;;;-145.18;100.00;46533.44;5016898;28;20025;-66
2023/09/06 09:19:22;;;;;;;7.45;3.30;;;;;;;-145.18;100.00;46531.47;5032044;28;20148;-66
2023/09/06 09:21:50;;;;;;;7.00;3.50;;;;;;;-145.18;100.00;46523.66;5033510;28;20045;-66
2023/09/06 09:24:24;;;;;;;7.93;3.47;;;;;;;-145.18;100.00;46535.38;5032498;28;20057;-66
2023/09/06 09:26:50;;;;;;;4.75;3.10;;;;;;;-145.18;100.00;46525.63;5033312;28;20033;-66
2023/09/06 09:29:16;;;;;;;6.15;3.75;;;;;;;-145.18;100.00;46525.63;5032991;28;20036;-66
2023/09/06 09:31:42;;;;;;;4.95;2.63;;;;;;;-145.18;100.00;46517.81;5032082;28;20037;-66
2023/09/06 09:34:07;;;;;;;5.45;3.10;;;;;;;-145.18;100.00;46506.09;5020554;28;20021;-66
2023/09/06 09:36:34;;;;;;;3.47;2.72;;;;;;;-145.18;100.00;46504.13;5033602;28;20029;-66
2023/09/06 09:39:06;;;;;;;4.03;2.63;;;;;;;-145.18;100.00;46506.09;5018581;28;20072;-66
2023/09/06 09:41:32;;;;;;;11.38;3.60;;;;;;;-145.18;100.00;46517.81;5019990;28;20038;-66
2023/09/06 09:44:17;;;;;;;4.78;3.17;;;;;;;-145.18;100.00;46504.13;5016658;28;20081;-66
2023/09/06 09:46:44;;;;;;;4.25;2.92;;;;;;;-145.18;100.00;46484.59;5015959;28;20057;-66
2023/09/06 09:49:11;;;;;;;5.75;2.90;;;;;;;-145.18;100.00;46484.59;5014613;28;20040;-66
2023/09/06 09:51:38;;;;;;;3.83;2.30;;;;;;;-145.18;100.00;46492.41;5016537;28;20448;-66
2023/09/06 09:54:04;;;;;;;3.22;2.50;;;;;;;-145.18;100.00;46502.19;5023751;28;20026;-66
2023/09/06 09:56:32;;;;;;;5.40;3.28;;;;;;;-145.18;100.00;46511.94;5032485;28;20021;-66
2023/09/06 09:59:01;;;;;;;3.28;2.80;;;;;;;-145.18;100.00;46496.31;5029332;28;20029;-66
2023/09/06 10:01:31;;;;;;;3.25;2.30;;;;;;;-145.18;100.00;46664.31;5013834;28;20443;-66
2023/09/06 10:04:00;;;;;;;7.18;2.72;;;;;;;-145.18;100.00;46492.41;5023684;28;20394;-66
2023/09/06 10:06:32;;;;;;;5.88;3.13;;;;;;;-145.18;100.00;46463.13;5031696;28;20017;-66
2023/09/06 10:09:01;;;;;;;2.70;2.40;;;;;;;-145.18;100.00;46492.41;5022788;28;20061;-66
2023/09/06 10:11:26;;;;;;;5.32;3.08;;;;;;;-145.18;100.00;46902.63;5013062;28;20030;-66
2023/09/06 10:13:53;;;;;;;4.85;3.05;;;;;;;-145.18;100.00;47051.09;5024946;28;20117;-66
2023/09/06 10:16:20;;;;;;;4.05;3.22;;;;;;;-145.18;100.00;47029.59;5029013;28;20021;-66
2023/09/06 10:18:46;;;;;;;4.95;3.00;;;;;;;-145.18;100.00;47015.91;5027970;28;20049;-66
2023/09/06 10:21:13;;;;;;;5.65;2.92;;;;;;;-145.18;100.00;46988.56;5022055;28;20313;-66
2023/09/06 10:23:42;;;;;;;6.70;3.60;;;;;;;-145.18;100.00;46965.13;5032041;28;20334;-66
2023/09/06 10:26:08;;;;;;;5.05;1.92;;;;;;;-145.18;100.00;46947.53;5027749;28;20068;-66
2023/09/06 10:28:34;;;;;;;3.83;2.70;;;;;;;-145.18;100.00;46957.31;5026856;28;20033;-66
2023/09/06 10:31:07;;;;;;;7.68;3.70;;;;;;;-145.18;90.37;46947.53;5026921;28;20108;-66
2023/09/06 10:33:35;;;;;;;5.93;3.33;;;;;;;-145.18;76.17;46943.63;5027575;28;20053;-66
2023/09/06 10:36:17;;;;;;;4.38;2.95;;;;;;;-145.18;100.00;46980.75;5025089;28;20026;-66
2023/09/06 10:38:55;;;;;;;4.82;2.80;;;;;;;-145.18;38.43;46935.81;5012729;28;20030;-66
2023/09/06 10:41:27;;;;;;;3.15;2.47;;;;;;;-145.18;29.13;46943.63;5014258;28;20022;-66
2023/09/06 10:43:58;;;;;;;3.65;2.38;;;;;;;-145.18;26.80;46945.59;5023181;28;20044;-66
2023/09/06 10:46:28;;;;;;;2.55;1.90;;;;;;;-145.18;0.00;46928.00;5014095;28;20080;-61
2023/09/06 10:49:23;;;;;;;2.88;1.92;;;;;;;-145.18;0.00;46918.25;5012627;28;20021;-62
2023/09/06 10:51:55;;;;;;;3.10;2.30;;;;;;;-145.18;0.00;46918.25;5019944;28;20036;-62
2023/09/06 10:54:33;;;;;;;3.63;2.25;;;;;;;-145.18;0.00;46906.53;5018213;28;20017;-62
2023/09/06 10:57:02;;;;;;;5.15;2.00;;;;;;;-145.18;0.00;46914.34;5023729;28;20025;-62
2023/09/06 10:59:28;;;;;;;3.88;2.50;;;;;;;-145.18;0.00;46900.66;5031442;28;20432;-62
2023/09/06 11:02:13;;;;;;;3.00;2.13;;;;;;;-145.18;0.00;46914.34;5032253;28;20064;-62
2023/09/06 11:04:39;;;;;;;3.67;2.50;;;;;;;-145.18;0.00;46916.28;5012741;28;20130;-62
2023/09/06 11:07:10;;;;;;;3.75;2.53;;;;;;;-145.18;0.00;46898.72;5012449;28;20486;-62
2023/09/06 11:09:49;;;;;;;4.97;2.97;;;;;;;-145.18;0.00;46906.53;5025094;28;20393;-62